Time;durP1;ratioP1;P1;durP2;ratioP2;P2;SDS_P1;SDS_P2;PMS_P1;PMS_P2;Temp;Humidity;BMP_temperature;BMP_pressure;BME280_temperature;BME280_humidity;BME280_pressure;Samples;Min_cycle;Max_cycle;Signal;HPM_P1;HPM_P2
2024/04/12 00:01:05;;;;;;;14.30;5.73;;;5.50;1.00;;;;;;5536434;25;20273;-66
2024/04/12 00:03:52;;;;;;;12.53;6.03;;;5.40;1.00;;;;;;5541216;25;20227;-66
2024/04/12 00:06:42;;;;;;;11.73;5.80;;;5.40;1.00;;;;;;5527884;25;20261;-66
2024/04/12 00:09:29;;;;;;;11.67;6.20;;;5.40;23.40;;;;;;5522686;25;20797;-66
2024/04/12 00:12:25;;;;;;;13.07;6.00;;;5.30;13.60;;;;;;5534033;25;20223;-66
2024/04/12 00:15:21;;;;;;;14.33;6.10;;;5.30;12.60;;;;;;5484533;26;20284;-66
2024/04/12 00:18:11;;;;;;;16.70;6.33;;;5.20;54.50;;;;;;5499485;26;20221;-66
2024/04/12 00:20:58;;;;;;;16.90;6.13;;;5.20;99.90;;;;;;5491448;26;20304;-66
2024/04/12 00:23:47;;;;;;;15.10;6.47;;;5.10;99.90;;;;;;5490289;26;20322;-66
2024/04/12 00:26:34;;;;;;;12.57;6.53;;;5.10;99.90;;;;;;5494162;26;20328;-66
2024/04/12 00:29:30;;;;;;;12.57;6.30;;;5.00;99.90;;;;;;5499489;26;20857;-66
2024/04/12 00:32:18;;;;;;;11.37;6.37;;;5.00;99.90;;;;;;5530984;25;20607;-66
2024/04/12 00:35:11;;;;;;;13.67;6.30;;;5.00;99.90;;;;;;5551617;25;20222;-66
2024/04/12 00:38:03;;;;;;;13.23;6.20;;;5.10;99.90;;;;;;5534476;25;20346;-66
2024/04/12 00:40:52;;;;;;;13.87;6.03;;;5.00;99.90;;;;;;5547838;25;20256;-66
2024/04/12 00:43:45;;;;;;;11.03;6.00;;;4.90;1.00;;;;;;5544966;25;20324;-66
2024/04/12 00:46:40;;;;;;;14.73;6.00;;;4.90;1.00;;;;;;5545672;25;20223;-66
2024/04/12 00:49:30;;;;;;;16.50;7.00;;;4.80;1.00;;;;;;5550268;25;20294;-66
2024/04/12 00:52:22;;;;;;;14.57;7.27;;;4.80;1.00;;;;;;5533590;25;20235;-66
2024/04/12 00:55:09;;;;;;;26.30;8.13;;;4.90;1.00;;;;;;5545328;25;20277;-66
2024/04/12 00:57:59;;;;;;;28.63;7.90;;;4.80;1.00;;;;;;5537530;25;20226;-66
2024/04/12 01:00:46;;;;;;;24.97;8.50;;;4.80;53.20;;;;;;5530974;25;20230;-66
2024/04/12 01:03:39;;;;;;;18.53;7.90;;;4.80;99.90;;;;;;5529770;25;20227;-66
2024/04/12 01:06:28;;;;;;;23.37;7.87;;;4.80;99.90;;;;;;5538884;25;20348;-66
2024/04/12 01:09:21;;;;;;;14.63;7.33;;;4.90;99.90;;;;;;5555461;25;20237;-66
2024/04/12 01:12:07;;;;;;;22.70;7.90;;;4.90;99.90;;;;;;5535424;25;20282;-65
2024/04/12 01:14:59;;;;;;;21.73;8.00;;;4.80;1.00;;;;;;5543736;25;20231;-65
2024/04/12 01:17:46;;;;;;;24.40;8.00;;;4.90;1.00;;;;;;5534756;25;20302;-65
2024/04/12 01:20:39;;;;;;;23.00;7.87;;;4.80;1.00;;;;;;5534519;25;20335;-66
2024/04/12 01:23:27;;;;;;;18.00;7.33;;;4.80;1.00;;;;;;5540923;25;20303;-65
2024/04/12 01:26:19;;;;;;;19.93;7.30;;;4.90;1.00;;;;;;5539623;25;20234;-65
2024/04/12 01:29:06;;;;;;;21.13;7.03;;;5.00;1.00;;;;;;5481814;25;20231;-65
2024/04/12 01:31:55;;;;;;;17.60;6.63;;;5.00;1.00;;;;;;5510199;25;20290;-65
2024/04/12 01:34:50;;;;;;;20.70;7.17;;;5.00;1.00;;;;;;5495197;25;20289;-65
2024/04/12 01:37:43;;;;;;;25.13;7.33;;;5.10;1.00;;;;;;5507669;25;20240;-65
2024/04/12 01:40:35;;;;;;;22.07;7.50;;;5.00;1.00;;;;;;5515035;25;20630;-66
2024/04/12 01:43:28;;;;;;;18.27;8.10;;;5.00;1.00;;;;;;5504646;25;20231;-65
2024/04/12 01:46:14;;;;;;;22.33;8.77;;;5.10;1.00;;;;;;5519731;25;20243;-65
2024/04/12 01:49:05;;;;;;;18.83;9.17;;;5.10;1.00;;;;;;5530839;25;20230;-65
2024/04/12 01:51:55;;;;;;;22.20;10.33;;;5.20;1.00;;;;;;5533425;25;20278;-65
2024/04/12 01:55:05;;;;;;;19.27;10.33;;;5.20;1.00;;;;;;5552678;25;20297;-66
2024/04/12 01:57:52;;;;;;;23.50;11.97;;;5.10;1.00;;;;;;5542974;25;20230;-66
2024/04/12 02:00:44;;;;;;;27.00;13.10;;;5.10;1.00;;;;;;5542067;25;20230;-65
2024/04/12 02:03:31;;;;;;;31.40;12.53;;;5.20;1.00;;;;;;5541884;25;20342;-66
2024/04/12 02:06:22;;;;;;;27.33;14.17;;;5.20;1.00;;;;;;5531747;25;20230;-65
2024/04/12 02:09:13;;;;;;;24.37;13.30;;;5.20;1.00;;;;;;5534956;25;20234;-65
2024/04/12 02:12:03;;;;;;;27.00;12.67;;;5.10;1.00;;;;;;5534124;25;20223;-66
2024/04/12 02:14:50;;;;;;;26.07;12.13;;;5.10;1.00;;;;;;5529997;25;20423;-65
2024/04/12 02:17:42;;;;;;;27.33;14.40;;;5.10;1.00;;;;;;5539923;25;20266;-65
2024/04/12 02:20:33;;;;;;;28.40;15.20;;;5.10;1.00;;;;;;5545912;25;20299;-66
2024/04/12 02:23:23;;;;;;;32.43;16.33;;;5.10;1.00;;;;;;5546511;25;20705;-65
2024/04/12 02:26:09;;;;;;;32.53;17.33;;;5.00;1.00;;;;;;5522502;25;20259;-65
2024/04/12 02:29:01;;;;;;;39.77;18.77;;;5.00;1.00;;;;;;5539296;25;20273;-66
2024/04/12 02:31:48;;;;;;;35.33;20.13;;;5.00;1.00;;;;;;5523956;25;20228;-66
2024/04/12 02:34:41;;;;;;;41.27;19.93;;;5.10;1.00;;;;;;5545491;25;20214;-65
2024/04/12 02:37:28;;;;;;;38.17;19.97;;;5.20;1.00;;;;;;5518324;25;20228;-66
2024/04/12 02:40:18;;;;;;;35.00;19.57;;;5.10;1.00;;;;;;5537286;25;20343;-66
2024/04/12 02:43:05;;;;;;;35.10;19.17;;;5.20;1.00;;;;;;5520173;25;20573;-65
2024/04/12 02:45:55;;;;;;;36.60;18.73;;;5.20;1.00;;;;;;5525923;25;20224;-66
2024/04/12 02:48:43;;;;;;;38.77;18.60;;;5.10;1.00;;;;;;5512716;25;20283;-66
2024/04/12 02:51:35;;;;;;;39.73;18.73;;;5.10;1.00;;;;;;5531797;25;20265;-66
2024/04/12 02:54:27;;;;;;;29.43;15.73;;;5.10;1.00;;;;;;5539242;25;20357;-66
2024/04/12 02:57:15;;;;;;;34.03;16.33;;;5.30;1.00;;;;;;5558753;25;20230;-66
2024/04/12 03:00:06;;;;;;;33.60;18.07;;;5.30;1.00;;;;;;5555730;25;20269;-66
2024/04/12 03:03:05;;;;;;;35.70;20.63;;;5.30;1.00;;;;;;5529967;25;20270;-66
2024/04/12 03:05:58;;;;;;;43.97;20.10;;;5.30;1.00;;;;;;5522234;25;20274;-67
2024/04/12 03:08:51;;;;;;;39.23;20.87;;;5.30;1.00;;;;;;5537199;25;20223;-66
2024/04/12 03:11:41;;;;;;;35.47;21.73;;;5.30;1.00;;;;;;5530636;25;20229;-65
2024/04/12 03:14:30;;;;;;;43.23;22.63;;;5.30;1.00;;;;;;5543573;25;20330;-66
2024/04/12 03:17:21;;;;;;;43.13;25.23;;;5.40;1.00;;;;;;5520421;25;20235;-66
2024/04/12 03:20:08;;;;;;;50.47;26.23;;;5.40;1.00;;;;;;5538285;25;20298;-66
2024/04/12 03:22:58;;;;;;;52.67;27.97;;;5.40;1.00;;;;;;5528591;25;20260;-66
2024/04/12 03:25:47;;;;;;;45.13;25.30;;;5.40;1.00;;;;;;5543097;25;20664;-66
2024/04/12 03:28:36;;;;;;;53.70;26.17;;;5.30;1.00;;;;;;5521530;25;20224;-65
2024/04/12 03:31:26;;;;;;;46.37;25.73;;;5.30;1.00;;;;;;5520228;25;20311;-66
2024/04/12 03:34:16;;;;;;;51.87;26.30;;;5.40;1.00;;;;;;5509465;25;20613;-66
2024/04/12 03:37:23;;;;;;;45.73;26.63;;;5.30;1.00;;;;;;5537502;25;20904;-66
2024/04/12 03:40:17;;;;;;;52.43;26.47;;;5.30;1.00;;;;;;5558170;25;20223;-66
2024/04/12 03:43:09;;;;;;;48.50;27.27;;;5.30;1.00;;;;;;5553989;25;20806;-66
2024/04/12 03:45:57;;;;;;;51.67;26.73;;;5.30;1.00;;;;;;5538977;25;20235;-65
2024/04/12 03:48:47;;;;;;;46.47;24.43;;;5.30;1.00;;;;;;5530722;25;20268;-66
2024/04/12 03:51:34;;;;;;;51.67;26.10;;;5.30;1.00;;;;;;5556719;25;20805;-66
2024/04/12 03:54:23;;;;;;;47.83;26.23;;;5.20;1.00;;;;;;5521040;25;20326;-66
2024/04/12 03:57:10;;;;;;;48.77;24.87;;;5.20;1.00;;;;;;5548267;25;20302;-66
2024/04/12 04:00:10;;;;;;;53.07;25.20;;;5.10;1.00;;;;;;5533713;25;20763;-66
2024/04/12 04:03:09;;;;;;;47.30;25.50;;;5.20;1.00;;;;;;5553090;25;20276;-66
2024/04/12 04:05:58;;;;;;;46.17;25.33;;;5.10;1.00;;;;;;5524143;25;20254;-66
2024/04/12 04:08:48;;;;;;;51.67;26.30;;;5.10;1.00;;;;;;5520948;25;20232;-66
2024/04/12 04:11:42;;;;;;;48.93;25.37;;;5.10;1.00;;;;;;5540707;25;20219;-66
2024/04/12 04:14:32;;;;;;;53.43;26.83;;;5.00;1.00;;;;;;5522161;25;20231;-66
2024/04/12 04:17:29;;;;;;;50.93;27.47;;;5.00;1.00;;;;;;5520776;25;20259;-66
2024/04/12 04:20:17;;;;;;;57.40;28.90;;;5.10;1.00;;;;;;5520748;25;20278;-66
2024/04/12 04:23:06;;;;;;;56.90;28.73;;;5.10;1.00;;;;;;5527812;25;20274;-67
2024/04/12 04:25:53;;;;;;;51.93;28.10;;;5.10;1.00;;;;;;5553152;25;20559;-66
2024/04/12 04:28:43;;;;;;;62.67;29.57;;;5.00;1.00;;;;;;5546768;25;20344;-66
2024/04/12 04:31:36;;;;;;;54.53;29.10;;;5.10;1.00;;;;;;5525397;25;20971;-66
2024/04/12 04:34:28;;;;;;;58.87;30.33;;;5.10;1.00;;;;;;5523327;25;20274;-66
2024/04/12 04:37:15;;;;;;;56.67;30.10;;;5.20;1.00;;;;;;5545772;25;20713;-66
2024/04/12 04:40:09;;;;;;;55.23;29.77;;;5.30;9.60;;;;;;5524777;25;20335;-66
2024/04/12 04:42:59;;;;;;;55.43;29.63;;;5.40;22.20;;;;;;5526055;25;20261;-66
2024/04/12 04:45:48;;;;;;;62.97;31.57;;;5.40;32.00;;;;;;5544503;25;20551;-66
2024/04/12 04:48:37;;;;;;;58.87;31.67;;;5.50;34.60;;;;;;5537940;25;20223;-66
2024/04/12 04:51:27;;;;;;;58.23;32.30;;;5.60;52.10;;;;;;5538334;25;20563;-66
2024/04/12 04:54:17;;;;;;;60.83;33.03;;;5.70;53.10;;;;;;5526764;25;20636;-66
2024/04/12 04:57:04;;;;;;;57.47;31.63;;;5.90;84.10;;;;;;5533268;25;20261;-66
2024/04/12 05:00:05;;;;;;;58.13;30.87;;;6.10;89.30;;;;;;5521493;25;20227;-66
2024/04/12 05:02:53;;;;;;;60.70;31.43;;;6.20;82.80;;;;;;5538033;25;20618;-68
2024/04/12 05:05:42;;;;;;;60.00;33.30;;;6.30;84.10;;;;;;5522276;25;20304;-66
2024/04/12 05:08:35;;;;;;;70.97;35.40;;;6.40;73.30;;;;;;5540008;25;20264;-66
2024/04/12 05:11:29;;;;;;;70.23;36.97;;;6.50;75.80;;;;;;5522309;25;20557;-66
2024/04/12 05:14:44;;;;;;;74.90;38.07;;;6.60;77.90;;;;;;5528298;25;20270;-66
2024/04/12 05:17:25;;;;;;;73.17;37.47;;;6.80;90.60;;;;;;5544101;25;20631;-67
2024/04/12 05:20:20;;;;;;;85.10;40.20;;;7.00;99.20;;;;;;5543148;25;20274;-66
2024/04/12 05:23:11;;;;;;;84.33;41.30;;;7.10;99.90;;;;;;5535344;25;20768;-66
2024/04/12 05:26:05;;;;;;;82.23;42.67;;;7.40;99.90;;;;;;5538736;25;20229;-67
2024/04/12 05:28:56;;;;;;;75.87;39.33;;;7.60;90.50;;;;;;5542025;25;20579;-66
2024/04/12 05:31:45;;;;;;;75.97;38.13;;;7.90;16.10;;;;;;5536697;25;20228;-65
2024/04/12 05:34:34;;;;;;;69.40;39.10;;;8.30;1.00;;;;;;5549151;25;20335;-66
2024/04/12 05:37:21;;;;;;;79.40;38.43;;;8.30;99.90;;;;;;5564385;25;20693;-66
2024/04/12 05:40:12;;;;;;;66.60;36.50;;;8.50;1.00;;;;;;5530341;25;20625;-65
2024/04/12 05:43:02;;;;;;;59.77;31.40;;;8.70;1.00;;;;;;5536748;25;20230;-65
2024/04/12 05:45:53;;;;;;;58.00;32.63;;;8.80;1.00;;;;;;5551362;25;20223;-65
2024/04/12 05:48:40;;;;;;;73.20;38.07;;;9.00;99.90;;;;;;5566600;25;20226;-65
2024/04/12 05:51:30;;;;;;;87.13;50.73;;;9.10;99.90;;;;;;5550420;25;20668;-65
2024/04/12 05:54:19;;;;;;;91.53;54.77;;;9.10;90.30;;;;;;5524436;25;20571;-65
2024/04/12 05:57:10;;;;;;;85.43;55.47;;;9.10;1.00;;;;;;5546756;25;20277;-66
2024/04/12 06:00:09;;;;;;;72.83;39.27;;;9.20;1.00;;;;;;5540343;25;20764;-66
2024/04/12 06:02:56;;;;;;;60.63;32.60;;;9.30;1.00;;;;;;5545629;25;20234;-65
2024/04/12 06:05:46;;;;;;;56.77;35.77;;;9.40;99.90;;;;;;5554238;25;20269;-67
2024/04/12 06:08:35;;;;;;;63.20;35.50;;;9.50;99.90;;;;;;5544422;25;20287;-65
2024/04/12 06:11:25;;;;;;;54.10;35.17;;;9.60;99.90;;;;;;5542270;25;20243;-65
2024/04/12 06:14:13;;;;;;;59.00;35.07;;;9.70;99.90;;;;;;5546480;25;20226;-65
2024/04/12 06:17:08;;;;;;;55.50;31.23;;;9.80;99.90;;;;;;5548544;25;20218;-65
2024/04/12 06:19:59;;;;;;;47.80;29.00;;;10.00;1.00;;;;;;5540501;25;20346;-65
2024/04/12 06:22:49;;;;;;;29.97;16.70;;;10.10;1.00;;;;;;5548931;25;20265;-65
2024/04/12 06:25:38;;;;;;;44.97;29.07;;;10.20;16.90;;;;;;5538905;25;20234;-65
2024/04/12 06:28:30;;;;;;;47.70;25.23;;;10.20;16.10;;;;;;5546027;25;20570;-65
2024/04/12 06:31:20;;;;;;;48.13;28.83;;;10.40;99.90;;;;;;5541889;25;20325;-65
2024/04/12 06:34:17;;;;;;;50.67;27.97;;;10.50;20.30;;;;;;5531269;25;20232;-65
2024/04/12 06:37:08;;;;;;;44.93;27.17;;;10.70;59.40;;;;;;5540758;25;20224;-65
2024/04/12 06:39:55;;;;;;;48.67;27.70;;;10.90;1.00;;;;;;5535343;25;20281;-65
2024/04/12 06:42:45;;;;;;;47.43;28.47;;;11.00;1.00;;;;;;5549827;25;20857;-65
2024/04/12 06:45:31;;;;;;;47.57;27.53;;;11.20;99.90;;;;;;5535469;25;20670;-65
2024/04/12 06:48:26;;;;;;;48.20;28.80;;;11.30;1.00;;;;;;5535804;25;20300;-65
2024/04/12 06:51:16;;;;;;;45.77;27.43;;;11.40;1.00;;;;;;5525018;25;20267;-65
2024/04/12 06:54:05;;;;;;;42.67;26.03;;;11.40;99.90;;;;;;5532841;25;20227;-65
2024/04/12 06:56:52;;;;;;;44.13;28.60;;;11.40;88.40;;;;;;5552382;25;20229;-65
2024/04/12 06:59:44;;;;;;;44.63;22.40;;;11.50;99.90;;;;;;5539286;25;20342;-65
2024/04/12 07:02:33;;;;;;;54.23;32.60;;;11.60;1.00;;;;;;5522754;25;20274;-66
2024/04/12 07:05:21;;;;;;;45.60;28.20;;;11.80;1.00;;;;;;5549647;25;20935;-66
2024/04/12 07:08:16;;;;;;;43.17;24.13;;;11.80;99.90;;;;;;5546934;25;20718;-65
2024/04/12 07:11:06;;;;;;;42.83;23.40;;;11.90;99.90;;;;;;5551630;25;20307;-65
2024/04/12 07:13:56;;;;;;;47.83;25.47;;;12.00;1.00;;;;;;5537275;25;20223;-66
2024/04/12 07:16:43;;;;;;;44.93;24.37;;;12.00;1.00;;;;;;5534762;25;20238;-65
2024/04/12 07:19:34;;;;;;;45.27;16.03;;;12.10;1.00;;;;;;5533084;25;20416;-66
2024/04/12 07:22:26;;;;;;;46.20;23.93;;;12.20;1.00;;;;;;5532043;25;20234;-65
2024/04/12 07:25:15;;;;;;;49.30;25.47;;;12.30;99.90;;;;;;5520803;25;20228;-65
2024/04/12 07:28:06;;;;;;;45.27;21.77;;;12.30;99.90;;;;;;5519696;25;20632;-65
2024/04/12 07:30:53;;;;;;;45.60;26.27;;;12.30;1.00;;;;;;5547030;25;20787;-65
2024/04/12 07:33:45;;;;;;;45.77;21.50;;;12.50;1.00;;;;;;5533874;25;20295;-67
2024/04/12 07:36:32;;;;;;;36.80;21.57;;;12.70;99.90;;;;;;5554397;25;20223;-66
2024/04/12 07:39:23;;;;;;;39.23;21.27;;;12.70;1.00;;;;;;5548838;25;20226;-65
2024/04/12 07:42:18;;;;;;;49.83;28.50;;;12.90;1.00;;;;;;5553986;25;20239;-66
2024/04/12 07:45:08;;;;;;;38.70;19.37;;;13.00;99.90;;;;;;5544005;25;20332;-65
2024/04/12 07:48:11;;;;;;;34.13;18.80;;;13.40;1.00;;;;;;5545234;25;20227;-65
2024/04/12 07:51:00;;;;;;;29.60;15.00;;;13.50;99.90;;;;;;5530196;25;20230;-65
2024/04/12 07:53:49;;;;;;;30.17;16.77;;;13.50;1.00;;;;;;5554453;25;20548;-65
2024/04/12 07:56:37;;;;;;;33.47;16.83;;;13.50;14.00;;;;;;5535270;25;20272;-65
2024/04/12 07:59:29;;;;;;;31.47;16.07;;;13.80;1.00;;;;;;5554568;25;20553;-65
2024/04/12 08:02:17;;;;;;;21.00;10.57;;;13.90;1.00;;;;;;5536197;25;20578;-65
2024/04/12 08:05:14;;;;;;;25.90;10.97;;;14.20;1.00;;;;;;5541457;25;20225;-65
2024/04/12 08:08:14;;;;;;;28.97;15.07;;;14.60;1.00;;;;;;5530171;25;20230;-66
2024/04/12 08:11:31;;;;;;;30.37;15.10;;;14.70;99.90;;;;;;5533274;25;20306;-65
2024/04/12 08:14:20;;;;;;;20.13;11.03;;;14.60;99.90;;;;;;5545405;25;20273;-65
2024/04/12 08:17:14;;;;;;;23.73;13.00;;;14.60;99.90;;;;;;5540003;25;20324;-65
2024/04/12 08:20:13;;;;;;;12.70;6.30;;;14.50;99.90;;;;;;5537934;25;20902;-65
2024/04/12 08:23:04;;;;;;;15.73;8.90;;;15.00;1.00;;;;;;5544008;25;20306;-65
2024/04/12 08:25:51;;;;;;;14.37;7.90;;;15.50;99.90;;;;;;5529110;25;20626;-66
2024/04/12 08:28:41;;;;;;;15.87;6.67;;;15.80;1.00;;;;;;5525119;25;20613;-66
2024/04/12 08:31:29;;;;;;;15.13;7.60;;;15.90;99.90;;;;;;5549568;25;20240;-65
2024/04/12 08:34:24;;;;;;;13.73;6.97;;;16.20;26.70;;;;;;5530194;25;20700;-65
2024/04/12 08:37:16;;;;;;;13.53;5.53;;;16.00;1.00;;;;;;5535545;25;20265;-65
2024/04/12 08:40:08;;;;;;;10.63;5.70;;;16.70;12.90;;;;;;5514902;25;20246;-66
2024/04/12 08:43:08;;;;;;;18.03;5.03;;;16.70;1.00;;;;;;5542826;25;20231;-65
2024/04/12 08:45:58;;;;;;;7.23;3.67;;;16.70;1.00;;;;;;5536536;25;20227;-65
2024/04/12 08:48:48;;;;;;;19.03;7.70;;;17.40;1.00;;;;;;5537793;25;20297;-65
2024/04/12 08:51:39;;;;;;;21.20;9.00;;;17.50;1.00;;;;;;5529080;25;20272;-66
2024/04/12 08:54:28;;;;;;;20.27;8.50;;;17.20;1.00;;;;;;5520854;25;20232;-65
2024/04/12 08:57:15;;;;;;;20.07;8.87;;;17.20;99.90;;;;;;5534551;25;20223;-66
2024/04/12 09:00:07;;;;;;;6.33;4.50;;;17.30;1.00;;;;;;5535735;25;20261;-65
2024/04/12 09:02:58;;;;;;;19.20;8.27;;;17.60;1.00;;;;;;5536382;25;20235;-65
2024/04/12 09:05:45;;;;;;;15.40;6.73;;;17.00;1.00;;;;;;5547122;25;20229;-65
2024/04/12 09:08:40;;;;;;;11.13;6.20;;;17.30;1.00;;;;;;5527031;25;20266;-65
2024/04/12 09:11:27;;;;;;;13.27;4.73;;;17.40;1.00;;;;;;5533658;25;20229;-65
2024/04/12 09:14:20;;;;;;;16.67;6.43;;;16.90;1.00;;;;;;5528184;25;20334;-65
2024/04/12 09:17:14;;;;;;;12.00;5.83;;;17.10;11.80;;;;;;5546471;25;20800;-66
2024/04/12 09:20:04;;;;;;;20.93;6.40;;;17.50;1.00;;;;;;5548508;25;20265;-65
2024/04/12 09:22:54;;;;;;;14.70;5.43;;;17.50;1.00;;;;;;5546052;25;20323;-65
2024/04/12 09:25:54;;;;;;;10.20;5.13;;;17.80;1.00;;;;;;5544842;25;20234;-65
2024/04/12 09:28:40;;;;;;;16.73;4.80;;;17.80;1.00;;;;;;5544783;25;20227;-65
2024/04/12 09:34:46;;;;;;;4.80;2.30;;;17.70;1.00;;;;;;5522801;25;20230;-65
2024/04/12 09:37:43;;;;;;;11.37;3.10;;;18.10;1.00;;;;;;5539903;25;20274;-65
2024/04/12 09:40:34;;;;;;;13.03;5.33;;;17.60;1.00;;;;;;5534193;25;20235;-65
2024/04/12 09:43:31;;;;;;;13.07;4.97;;;17.60;1.00;;;;;;5531410;25;20232;-65
2024/04/12 09:46:23;;;;;;;11.07;5.10;;;18.00;1.00;;;;;;5544414;25;20225;-65
2024/04/12 10:39:33;;;;;;;13.87;4.97;;;19.10;1.00;;;;;;5558278;25;20298;-64
2024/04/12 10:42:25;;;;;;;12.00;4.63;;;18.80;1.00;;;;;;5556472;25;20230;-64
2024/04/12 10:45:17;;;;;;;8.90;4.30;;;19.60;1.00;;;;;;5538619;25;20299;-66
2024/04/12 10:48:05;;;;;;;13.23;3.90;;;19.40;1.00;;;;;;5529371;25;20281;-64
2024/04/12 10:50:54;;;;;;;12.60;4.80;;;19.50;1.00;;;;;;5546122;25;21123;-64
2024/04/12 10:53:46;;;;;;;8.87;4.70;;;18.90;1.00;;;;;;5523509;25;20270;-64
2024/04/12 10:56:35;;;;;;;9.83;4.90;;;19.10;1.00;;;;;;5535270;25;20768;-64
2024/04/12 10:59:30;;;;;;;12.10;4.73;;;19.50;1.00;;;;;;5526643;25;20228;-64
2024/04/12 11:02:19;;;;;;;10.67;4.77;;;20.10;1.00;;;;;;5541409;25;20286;-64
2024/04/12 11:05:24;;;;;;;16.37;4.30;;;20.30;1.00;;;;;;5550825;25;20294;-64
2024/04/12 11:08:12;;;;;;;6.67;3.63;;;19.60;1.00;;;;;;5533673;25;20904;-64
2024/04/12 11:11:15;;;;;;;11.33;5.30;;;19.20;1.00;;;;;;5533567;25;20236;-64
2024/04/12 11:14:03;;;;;;;14.33;5.10;;;19.30;1.00;;;;;;5545992;25;20558;-64
2024/04/12 11:32:23;;;;;;;13.87;4.80;;;20.40;1.00;;;;;;5539406;25;20230;-64
2024/04/12 11:35:18;;;;;;;12.00;2.30;;;20.00;1.00;;;;;;5544987;25;20338;-64
2024/04/12 11:38:13;;;;;;;10.77;3.13;;;19.90;1.00;;;;;;5540123;25;20613;-64
2024/04/12 11:41:01;;;;;;;10.83;4.67;;;19.60;1.00;;;;;;5531041;25;20700;-64
2024/04/12 11:43:51;;;;;;;11.60;3.80;;;19.90;1.00;;;;;;5531550;25;20235;-65
2024/04/12 11:46:40;;;;;;;10.53;4.23;;;19.70;1.00;;;;;;5541839;25;20272;-65
2024/04/12 11:49:38;;;;;;;11.73;4.10;;;20.50;1.00;;;;;;5546285;25;20603;-64
2024/04/12 11:52:27;;;;;;;6.67;3.13;;;20.60;1.00;;;;;;5540516;25;20227;-64
2024/04/12 11:55:21;;;;;;;16.77;5.33;;;20.10;1.00;;;;;;5530248;25;20226;-64
2024/04/12 11:58:08;;;;;;;11.30;5.43;;;19.90;1.00;;;;;;5534970;25;20276;-64
2024/04/12 12:00:58;;;;;;;9.33;4.70;;;20.00;1.00;;;;;;5532327;25;20270;-65
2024/04/12 12:03:45;;;;;;;16.50;5.53;;;20.10;1.00;;;;;;5543555;25;20234;-64
2024/04/12 12:06:34;;;;;;;15.20;5.10;;;19.60;1.00;;;;;;5542149;25;20226;-65
2024/04/12 12:09:24;;;;;;;9.97;4.60;;;20.00;1.00;;;;;;5527344;25;20339;-64
2024/04/12 12:12:13;;;;;;;11.77;4.43;;;21.00;1.00;;;;;;5508538;25;20641;-64
2024/04/12 12:15:00;;;;;;;13.63;4.40;;;20.90;1.00;;;;;;5533565;25;20565;-64
2024/04/12 12:17:49;;;;;;;7.80;4.20;;;20.80;1.00;;;;;;5528902;25;20227;-64
2024/04/12 12:20:39;;;;;;;7.83;2.87;;;20.90;1.00;;;;;;5532545;25;20334;-65
2024/04/12 12:23:26;;;;;;;6.93;3.90;;;21.20;1.00;;;;;;5530255;25;20226;-64
2024/04/12 12:26:18;;;;;;;8.23;4.13;;;21.70;1.00;;;;;;5551939;25;20713;-64
2024/04/12 12:29:06;;;;;;;8.57;3.07;;;21.50;1.00;;;;;;5540601;25;20684;-64
2024/04/12 12:31:56;;;;;;;13.33;3.77;;;20.80;1.00;;;;;;5537535;25;20341;-64
2024/04/12 12:34:43;;;;;;;11.33;3.90;;;21.40;1.00;;;;;;5514105;25;20236;-64
2024/04/12 12:37:34;;;;;;;10.77;4.17;;;20.60;1.00;;;;;;5542668;25;20277;-65
2024/04/12 12:40:21;;;;;;;11.50;3.87;;;20.30;1.00;;;;;;5537158;25;20238;-64
2024/04/12 12:43:13;;;;;;;17.03;4.33;;;20.70;1.00;;;;;;5541731;25;20230;-65
2024/04/12 12:46:00;;;;;;;9.47;3.70;;;21.30;1.00;;;;;;5522134;25;20601;-65
2024/04/12 12:48:49;;;;;;;8.67;3.30;;;21.10;1.00;;;;;;5526478;25;20223;-64
2024/04/12 12:51:40;;;;;;;7.47;3.33;;;20.60;1.00;;;;;;5537279;25;20269;-64
2024/04/12 12:54:29;;;;;;;11.90;3.10;;;21.20;1.00;;;;;;5538241;25;20236;-64
2024/04/12 12:57:17;;;;;;;8.40;2.93;;;22.40;1.00;;;;;;5547685;25;20729;-64
2024/04/12 13:00:18;;;;;;;9.43;3.33;;;23.30;1.00;;;;;;5542314;25;20497;-65
2024/04/12 13:03:11;;;;;;;6.63;2.97;;;23.00;1.00;;;;;;5524346;25;20280;-65
2024/04/12 13:06:06;;;;;;;17.20;2.97;;;22.20;1.00;;;;;;5507794;25;20904;-64
2024/04/12 13:08:53;;;;;;;6.17;3.20;;;22.20;1.00;;;;;;5556344;25;20729;-65
2024/04/12 13:11:43;;;;;;;10.60;3.97;;;21.90;1.00;;;;;;5547138;25;20274;-65
2024/04/12 13:14:29;;;;;;;16.70;3.93;;;22.00;1.00;;;;;;5537596;25;20234;-64
2024/04/12 13:17:23;;;;;;;7.20;2.60;;;21.70;1.00;;;;;;5556708;25;20226;-64
2024/04/12 13:20:18;;;;;;;12.77;4.20;;;21.70;1.00;;;;;;5557786;25;20293;-65
2024/04/12 13:23:09;;;;;;;9.77;4.37;;;21.70;1.00;;;;;;5546639;25;20233;-65
2024/04/12 13:25:55;;;;;;;10.67;4.17;;;22.00;1.00;;;;;;5558097;25;20242;-64
2024/04/12 13:28:45;;;;;;;10.47;4.63;;;21.40;1.00;;;;;;5553546;25;20633;-65
2024/04/12 13:31:33;;;;;;;10.47;4.10;;;20.60;1.00;;;;;;5539764;25;20781;-67
2024/04/12 13:34:25;;;;;;;17.10;3.67;;;20.60;1.00;;;;;;5547402;25;20219;-65
2024/04/12 13:37:14;;;;;;;11.27;4.13;;;20.30;1.00;;;;;;5560040;25;20302;-65
2024/04/12 13:40:08;;;;;;;9.50;3.93;;;20.30;1.00;;;;;;5531640;25;20519;-65
2024/04/12 13:42:59;;;;;;;10.57;3.77;;;20.30;1.00;;;;;;5546194;25;20224;-66
2024/04/12 13:52:04;;;;;;;12.63;3.47;;;20.60;1.00;;;;;;5539404;25;20219;-66
2024/04/12 13:54:56;;;;;;;10.27;3.50;;;21.20;1.00;;;;;;5528490;25;20625;-65
2024/04/12 13:57:43;;;;;;;9.90;3.13;;;22.30;1.00;;;;;;5530145;25;20230;-66
2024/04/12 14:00:34;;;;;;;11.27;3.30;;;23.40;1.00;;;;;;5523144;25;20231;-65
2024/04/12 14:03:23;;;;;;;9.37;2.73;;;23.00;1.00;;;;;;5542175;25;20228;-66
2024/04/12 14:06:13;;;;;;;11.03;3.30;;;22.80;1.00;;;;;;5522527;25;20236;-66
2024/04/12 14:09:03;;;;;;;12.67;3.20;;;22.10;1.00;;;;;;5532099;25;20233;-66
2024/04/12 14:11:53;;;;;;;10.77;3.10;;;22.30;1.00;;;;;;5548245;25;20262;-65
2024/04/12 14:14:39;;;;;;;10.40;3.60;;;22.00;1.00;;;;;;5535340;25;20236;-65
2024/04/12 14:17:29;;;;;;;9.20;2.93;;;22.50;1.00;;;;;;5532801;25;20356;-65
2024/04/12 14:20:16;;;;;;;6.83;3.10;;;23.20;1.00;;;;;;5541704;25;20755;-65
2024/04/12 14:23:05;;;;;;;10.53;3.43;;;22.30;1.00;;;;;;5532109;25;20736;-66
2024/04/12 14:25:57;;;;;;;13.40;4.10;;;21.90;1.00;;;;;;5542798;25;20238;-66
2024/04/12 14:28:47;;;;;;;8.77;3.07;;;22.00;1.00;;;;;;5526973;25;20270;-66
2024/04/12 14:31:33;;;;;;;8.67;2.70;;;22.50;1.00;;;;;;5523886;25;20222;-66
2024/04/12 14:34:23;;;;;;;9.90;3.30;;;22.30;1.00;;;;;;5541272;25;20232;-66
2024/04/12 14:37:13;;;;;;;12.90;3.73;;;22.00;1.00;;;;;;5547229;25;20230;-65
2024/04/12 14:40:06;;;;;;;8.87;3.10;;;21.50;1.00;;;;;;5530015;25;20261;-66
2024/04/12 14:42:56;;;;;;;8.97;2.67;;;22.40;1.00;;;;;;5540185;25;20227;-65
2024/04/12 14:45:46;;;;;;;7.07;2.83;;;21.80;1.00;;;;;;5531198;25;20709;-66
2024/04/12 14:48:38;;;;;;;11.40;3.73;;;22.30;1.00;;;;;;5537100;25;20338;-66
2024/04/12 14:51:25;;;;;;;9.50;3.60;;;22.40;1.00;;;;;;5545177;25;20733;-66
2024/04/12 14:54:15;;;;;;;15.97;3.90;;;22.20;1.00;;;;;;5536846;25;20333;-66
2024/04/12 14:57:02;;;;;;;9.83;3.07;;;22.30;1.00;;;;;;5542206;25;20277;-65
2024/04/12 14:59:54;;;;;;;11.07;4.00;;;22.50;1.00;;;;;;5528095;25;20223;-65
2024/04/12 15:48:53;;;;;;;8.35;2.10;;;25.00;1.00;;;;;;5548067;25;20741;-66
2024/04/12 15:51:42;;;;;;;7.60;2.15;;;24.00;1.00;;;;;;5547958;25;20286;-66
2024/04/12 15:54:29;;;;;;;4.50;2.05;;;23.40;1.00;;;;;;5514763;25;20715;-66
2024/04/12 16:12:59;;;;;;;6.50;2.27;;;22.80;1.00;;;;;;5484773;25;20589;-65
2024/04/12 16:15:49;;;;;;;6.38;2.33;;;22.50;1.00;;;;;;5508446;25;20235;-65
2024/04/12 16:18:38;;;;;;;4.88;1.83;;;22.70;1.00;;;;;;5487079;26;20270;-66
2024/04/12 16:21:27;;;;;;;10.05;1.92;;;22.70;1.00;;;;;;5499247;25;20223;-65
2024/04/12 16:24:16;;;;;;;8.38;2.03;;;23.10;1.00;;;;;;5483435;26;20240;-65
2024/04/12 16:27:07;;;;;;;14.27;2.35;;;22.00;1.00;;;;;;5494960;25;20295;-65
2024/04/12 16:29:54;;;;;;;7.05;1.90;;;21.90;1.00;;;;;;5492931;25;21057;-65
2024/04/12 16:32:43;;;;;;;6.88;1.73;;;21.80;1.00;;;;;;5493414;26;20219;-65
2024/04/12 16:35:30;;;;;;;5.43;2.10;;;21.40;1.00;;;;;;5511506;25;20240;-66
2024/04/12 16:38:19;;;;;;;6.93;2.17;;;21.20;1.00;;;;;;5498459;25;20280;-66
2024/04/12 16:41:10;;;;;;;8.77;2.27;;;21.00;1.00;;;;;;5508769;25;20224;-65
2024/04/12 16:44:01;;;;;;;7.70;2.00;;;20.00;1.00;;;;;;5498556;26;20332;-65
2024/04/12 16:46:48;;;;;;;6.37;1.87;;;20.10;1.00;;;;;;5495203;26;20223;-65
2024/04/12 16:49:37;;;;;;;4.17;1.70;;;19.90;1.00;;;;;;5490934;26;20228;-65
2024/04/12 16:52:24;;;;;;;6.80;1.93;;;19.70;1.00;;;;;;5501328;26;20304;-65
2024/04/12 16:55:13;;;;;;;6.97;2.10;;;19.60;1.00;;;;;;5503060;25;20235;-65
2024/04/12 16:58:06;;;;;;;6.23;2.10;;;19.30;1.00;;;;;;5529929;25;20297;-65
2024/04/12 17:00:55;;;;;;;14.07;2.80;;;19.10;1.00;;;;;;5546240;25;20322;-65
2024/04/12 17:03:42;;;;;;;4.77;2.10;;;18.80;1.00;;;;;;5540858;25;20647;-65